createdAt,value
2022-11-23T00:01:16.966Z,80.60
2022-11-23T00:03:46.622Z,80.69
2022-11-23T00:06:14.727Z,80.74
2022-11-23T00:08:43.225Z,79.83
2022-11-23T00:11:11.156Z,80.19
2022-11-23T00:13:41.052Z,79.93
2022-11-23T00:16:09.576Z,79.94
2022-11-23T00:18:37.868Z,79.67
2022-11-23T00:21:10.764Z,79.67
2022-11-23T00:23:39.168Z,79.67
2022-11-23T00:26:07.452Z,79.50
2022-11-23T00:28:40.084Z,79.04
2022-11-23T00:31:10.369Z,79.39
2022-11-23T00:33:38.551Z,79.23
2022-11-23T00:36:09.064Z,78.83
2022-11-23T00:38:38.887Z,78.87
2022-11-23T00:41:10.728Z,78.91
2022-11-23T00:43:39.238Z,78.55
2022-11-23T00:46:11.528Z,78.99
2022-11-23T00:48:39.818Z,78.89
2022-11-23T00:51:10.213Z,78.94
2022-11-23T00:53:39.690Z,79.22
2022-11-23T00:56:07.833Z,79.94
2022-11-23T00:58:38.635Z,79.72
2022-11-23T01:01:09.444Z,80.30
2022-11-23T01:03:38.203Z,80.84
2022-11-23T01:06:08.774Z,80.90
2022-11-23T01:08:36.828Z,81.51
2022-11-23T01:11:08.600Z,81.78
2022-11-23T01:13:37.035Z,81.63
2022-11-23T01:16:06.542Z,81.77
2022-11-23T01:18:34.554Z,81.32
2022-11-23T01:21:03.312Z,81.42
2022-11-23T01:23:31.876Z,81.22
2022-11-23T01:26:07.264Z,80.85
2022-11-23T01:28:35.582Z,80.57
2022-11-23T01:31:08.792Z,80.65
2022-11-23T01:33:37.134Z,80.93
2022-11-23T01:36:11.382Z,81.23
2022-11-23T01:38:39.071Z,80.91
2022-11-23T01:41:10.594Z,80.49
2022-11-23T01:43:38.285Z,80.06
2022-11-23T01:46:07.607Z,79.50
2022-11-23T01:48:39.898Z,79.22
2022-11-23T01:51:16.613Z,79.25
2022-11-23T01:53:47.138Z,79.19
2022-11-23T01:56:20.732Z,78.51
2022-11-23T01:58:51.556Z,78.25
2022-11-23T02:01:19.749Z,77.99
2022-11-23T02:03:50.089Z,77.97
2022-11-23T02:06:20.766Z,77.63
2022-11-23T02:08:49.307Z,77.97
2022-11-23T02:11:18.901Z,77.08
2022-11-23T02:13:49.899Z,77.52
2022-11-23T02:16:19.520Z,77.30
2022-11-23T02:18:49.536Z,77.28
2022-11-23T02:21:21.113Z,77.58
2022-11-23T02:23:55.319Z,77.46
2022-11-23T02:26:28.099Z,77.09
2022-11-23T02:29:01.062Z,77.13
2022-11-23T02:31:31.837Z,77.59
2022-11-23T02:33:59.516Z,77.79
2022-11-23T02:36:37.617Z,78.04
2022-11-23T02:39:12.480Z,77.24
2022-11-23T02:41:44.866Z,77.88
2022-11-23T02:44:32.908Z,77.63
2022-11-23T02:47:01.196Z,78.02
2022-11-23T02:49:29.660Z,77.89
2022-11-23T02:51:57.874Z,78.56
2022-11-23T02:54:27.828Z,77.90
2022-11-23T02:56:57.491Z,78.25
2022-11-23T02:59:25.366Z,77.80
2022-11-23T03:01:54.798Z,78.05
2022-11-23T03:04:27.599Z,77.78
2022-11-23T03:06:56.634Z,78.00
2022-11-23T03:09:26.257Z,78.03
2022-11-23T03:11:55.475Z,77.74
2022-11-23T03:14:26.876Z,77.93
2022-11-23T03:16:59.561Z,78.27
2022-11-23T03:19:28.991Z,78.13
2022-11-23T03:21:57.241Z,78.11
2022-11-23T03:24:24.933Z,77.68
2022-11-23T03:26:55.176Z,77.55
2022-11-23T03:29:26.446Z,77.53
2022-11-23T03:31:57.812Z,77.92
2022-11-23T03:34:25.896Z,77.36
2022-11-23T03:36:54.139Z,78.39
2022-11-23T03:39:22.031Z,78.00
2022-11-23T03:42:15.992Z,78.08
2022-11-23T03:44:43.769Z,78.47
2022-11-23T03:47:14.185Z,78.43
2022-11-23T03:49:42.621Z,78.24
2022-11-23T03:52:11.342Z,78.17
2022-11-23T03:54:38.991Z,78.04
2022-11-23T03:57:07.180Z,78.58
2022-11-23T03:59:34.886Z,78.50
2022-11-23T04:02:02.683Z,79.03
2022-11-23T04:04:36.379Z,78.47
2022-11-23T04:07:27.483Z,78.67
2022-11-23T04:09:56.577Z,78.55
2022-11-23T04:12:33.865Z,78.52
2022-11-23T04:15:01.558Z,79.09
2022-11-23T04:17:29.478Z,78.74
2022-11-23T04:19:58.491Z,78.64
2022-11-23T04:22:26.733Z,78.50
2022-11-23T04:24:54.585Z,78.72
2022-11-23T04:27:23.308Z,78.75
2022-11-23T04:29:51.080Z,79.11
2022-11-23T04:32:20.034Z,79.08
2022-11-23T04:34:48.719Z,78.90
2022-11-23T04:37:18.896Z,78.89
2022-11-23T04:39:46.667Z,78.69
2022-11-23T04:42:17.192Z,78.06
2022-11-23T04:44:50.428Z,77.79
2022-11-23T04:47:19.378Z,77.71
2022-11-23T04:49:48.938Z,77.43
2022-11-23T04:52:18.536Z,77.18
2022-11-23T04:54:48.316Z,77.02
2022-11-23T04:57:16.881Z,76.97
2022-11-23T04:59:46.374Z,77.02
2022-11-23T05:02:14.513Z,76.91
2022-11-23T05:05:11.718Z,77.50
2022-11-23T05:07:41.305Z,77.25
2022-11-23T05:10:10.930Z,77.62
2022-11-23T05:12:39.359Z,78.03
2022-11-23T05:15:09.240Z,78.14
2022-11-23T05:17:39.159Z,78.55
2022-11-23T05:20:12.537Z,78.46
2022-11-23T05:22:46.657Z,79.09
2022-11-23T05:25:17.627Z,79.38
2022-11-23T05:27:47.482Z,79.50
2022-11-23T05:30:15.808Z,79.47
2022-11-23T05:32:43.787Z,79.71
2022-11-23T05:35:12.642Z,79.95
2022-11-23T05:37:41.249Z,80.25
2022-11-23T05:40:14.219Z,80.23
2022-11-23T05:42:43.418Z,80.54
2022-11-23T05:45:20.035Z,80.65
2022-11-23T05:47:52.740Z,80.81
2022-11-23T05:50:28.981Z,80.95
2022-11-23T05:53:15.888Z,80.87
2022-11-23T05:55:48.050Z,80.88
2022-11-23T05:58:15.804Z,81.08
2022-11-23T06:00:43.666Z,80.75
2022-11-23T06:03:12.245Z,80.64
2022-11-23T06:05:41.000Z,80.73
2022-11-23T06:08:10.019Z,80.97
2022-11-23T06:10:39.480Z,80.97
2022-11-23T06:13:09.229Z,80.67
2022-11-23T06:15:37.085Z,80.95
2022-11-23T06:18:05.599Z,80.77
2022-11-23T06:20:48.213Z,80.90
2022-11-23T06:23:16.816Z,81.05
2022-11-23T06:25:44.652Z,81.02
2022-11-23T06:28:27.475Z,80.99
2022-11-23T06:30:56.947Z,80.59
2022-11-23T06:33:25.898Z,80.73
2022-11-23T06:35:56.168Z,80.53
2022-11-23T06:38:27.589Z,80.85
2022-11-23T06:41:15.427Z,80.92
2022-11-23T06:43:45.029Z,81.24
2022-11-23T06:46:14.579Z,81.45
2022-11-23T06:48:44.525Z,81.24
2022-11-23T06:51:13.464Z,81.58
2022-11-23T06:53:41.614Z,81.93
2022-11-23T06:56:10.680Z,81.54
2022-11-23T06:58:38.997Z,81.48
2022-11-23T07:01:13.022Z,81.35
2022-11-23T07:03:48.198Z,81.30
2022-11-23T07:06:23.058Z,80.96
2022-11-23T07:08:56.002Z,81.06
2022-11-23T07:11:59.095Z,80.80
2022-11-23T07:14:27.927Z,80.68
2022-11-23T07:16:58.232Z,80.94
2022-11-23T07:19:26.041Z,80.71
2022-11-23T07:21:59.620Z,81.39
2022-11-23T07:24:27.373Z,81.21
2022-11-23T07:26:55.087Z,80.83
2022-11-23T07:29:24.093Z,80.43
2022-11-23T07:31:53.284Z,79.98
2022-11-23T07:34:26.281Z,79.19
2022-11-23T07:36:57.911Z,79.22
2022-11-23T07:39:42.232Z,79.16
2022-11-23T07:45:04.760Z,78.14
2022-11-23T07:47:32.656Z,78.10
2022-11-23T07:50:02.008Z,77.57
2022-11-23T07:52:30.488Z,77.33
2022-11-23T07:55:00.444Z,77.71
2022-11-23T07:57:28.496Z,76.66
2022-11-23T07:59:56.943Z,75.27
2022-11-23T08:02:24.653Z,75.66
2022-11-23T08:04:52.397Z,74.72
2022-11-23T08:07:21.446Z,73.30
2022-11-23T08:09:50.688Z,73.10
2022-11-23T08:12:18.374Z,72.67
2022-11-23T08:14:46.368Z,72.36
2022-11-23T08:17:14.033Z,71.46
2022-11-23T08:19:42.575Z,72.03
2022-11-23T08:22:14.633Z,70.78
2022-11-23T08:24:45.490Z,70.82
2022-11-23T08:27:13.167Z,70.54
2022-11-23T08:29:41.507Z,67.60
2022-11-23T08:32:09.203Z,67.01
2022-11-23T08:34:37.570Z,64.85
2022-11-23T08:37:05.246Z,60.96
2022-11-23T08:39:33.322Z,56.37
2022-11-23T08:42:02.351Z,54.45
2022-11-23T08:44:30.939Z,53.00
2022-11-23T08:46:58.824Z,52.16
2022-11-23T08:49:26.806Z,51.93
2022-11-23T08:51:55.008Z,52.02
2022-11-23T08:54:24.201Z,51.93
2022-11-23T08:56:52.589Z,51.48
2022-11-23T08:59:21.625Z,51.16
2022-11-23T09:01:49.380Z,50.68
2022-11-23T09:04:20.708Z,50.04
2022-11-23T09:06:48.728Z,49.93
2022-11-23T09:09:16.426Z,49.36
2022-11-23T09:11:44.448Z,48.54
2022-11-23T09:14:12.218Z,48.38
2022-11-23T09:16:41.254Z,48.89
2022-11-23T09:19:08.895Z,48.23
2022-11-23T09:21:39.125Z,47.88
2022-11-23T09:24:07.432Z,47.09
2022-11-23T09:26:37.550Z,46.55
2022-11-23T09:29:05.732Z,46.30
2022-11-23T09:31:33.480Z,45.60
2022-11-23T09:34:02.535Z,44.97
2022-11-23T09:36:31.098Z,44.39
2022-11-23T09:38:58.892Z,44.41
2022-11-23T09:41:58.533Z,44.01
2022-11-23T09:44:36.661Z,43.74
2022-11-23T09:47:20.417Z,43.30
2022-11-23T09:49:58.852Z,43.14
2022-11-23T09:52:27.425Z,42.24
2022-11-23T09:54:58.289Z,41.99
2022-11-23T09:57:31.164Z,41.70
2022-11-23T10:00:03.124Z,41.90
2022-11-23T10:02:37.618Z,41.36
2022-11-23T10:05:08.286Z,40.34
2022-11-23T10:07:50.440Z,40.44
2022-11-23T10:10:30.562Z,41.35
2022-11-23T10:13:08.318Z,41.10
2022-11-23T10:15:41.452Z,40.87
2022-11-23T10:18:23.772Z,40.79
2022-11-23T10:21:00.791Z,40.47
2022-11-23T10:23:50.181Z,39.81
2022-11-23T10:26:20.030Z,39.83
2022-11-23T10:28:48.800Z,39.52
2022-11-23T10:31:19.219Z,39.52
2022-11-23T10:33:55.565Z,39.65
2022-11-23T10:36:25.436Z,39.62
2022-11-23T10:38:58.616Z,40.23
2022-11-23T10:41:26.984Z,39.42
2022-11-23T10:44:07.896Z,39.60
2022-11-23T10:46:40.378Z,39.57
2022-11-23T10:49:18.260Z,38.41
2022-11-23T10:51:57.281Z,37.83
2022-11-23T10:54:29.183Z,37.01
2022-11-23T10:56:58.761Z,38.72
2022-11-23T10:59:36.553Z,38.41
2022-11-23T11:02:16.541Z,38.65
2022-11-23T11:04:44.950Z,38.80
2022-11-23T11:07:25.029Z,38.54
2022-11-23T11:09:55.136Z,38.07
2022-11-23T11:12:24.051Z,38.38
2022-11-23T11:15:10.921Z,38.28
2022-11-23T11:17:40.240Z,38.84
2022-11-23T11:20:31.324Z,40.39
2022-11-23T11:23:03.172Z,39.37
2022-11-23T11:25:33.924Z,38.40
2022-11-23T11:28:04.174Z,37.13
2022-11-23T11:30:45.085Z,37.21
2022-11-23T11:33:19.038Z,38.73
2022-11-23T11:35:52.345Z,40.82
2022-11-23T11:38:28.079Z,42.00
2022-11-23T11:40:58.861Z,42.28
2022-11-23T11:43:39.175Z,42.84
2022-11-23T11:46:30.127Z,43.07
2022-11-23T11:49:04.767Z,43.65
2022-11-23T11:51:37.914Z,43.08
2022-11-23T11:54:16.806Z,42.92
2022-11-23T11:56:47.070Z,42.22
2022-11-23T11:59:19.098Z,42.95
2022-11-23T12:01:56.211Z,43.06
2022-11-23T12:04:30.400Z,42.88
2022-11-23T12:07:06.084Z,42.95
2022-11-23T12:09:40.032Z,43.01
2022-11-23T12:12:15.856Z,42.76
2022-11-23T12:14:44.977Z,40.63
2022-11-23T12:17:46.202Z,40.42
2022-11-23T12:20:24.904Z,39.50
2022-11-23T12:23:16.034Z,39.30
2022-11-23T12:25:52.621Z,39.41
2022-11-23T12:28:41.722Z,39.90
2022-11-23T12:31:17.493Z,41.33
2022-11-23T12:34:01.171Z,42.92
2022-11-23T12:36:52.074Z,42.91
2022-11-23T12:39:38.184Z,44.09
2022-11-23T12:42:14.669Z,43.29
2022-11-23T12:44:55.540Z,42.73
2022-11-23T12:47:35.061Z,42.15
2022-11-23T12:50:17.792Z,42.25
2022-11-23T12:53:01.115Z,43.20
2022-11-23T12:55:38.795Z,42.94
2022-11-23T12:58:17.055Z,41.79
2022-11-23T13:00:49.404Z,42.49
2022-11-23T13:03:42.933Z,43.93
2022-11-23T13:06:59.307Z,43.02
2022-11-23T13:09:56.402Z,44.70
2022-11-23T13:12:49.971Z,45.17
2022-11-23T13:15:36.256Z,45.63
2022-11-23T13:18:13.940Z,46.92
2022-11-23T13:21:06.017Z,47.06
2022-11-23T13:23:37.958Z,47.02
2022-11-23T13:26:17.334Z,48.99
2022-11-23T13:28:46.301Z,48.43
2022-11-23T13:31:24.781Z,48.16
2022-11-23T13:33:55.801Z,49.63
2022-11-23T13:37:11.123Z,49.30
2022-11-23T13:40:03.579Z,49.47
2022-11-23T13:42:34.005Z,49.85
2022-11-23T13:45:25.877Z,50.57
2022-11-23T13:51:06.806Z,51.75
2022-11-23T13:53:36.774Z,51.42
2022-11-23T13:56:24.046Z,51.96
2022-11-23T13:58:53.957Z,52.42
2022-11-23T14:01:59.640Z,51.64
2022-11-23T14:04:30.931Z,51.03
2022-11-23T14:07:03.509Z,51.14
2022-11-23T14:09:37.601Z,50.82
2022-11-23T14:12:15.624Z,51.57
2022-11-23T14:14:52.959Z,52.09
2022-11-23T14:18:03.242Z,52.86
2022-11-23T14:20:44.834Z,53.15
2022-11-23T14:23:29.465Z,52.37
2022-11-23T14:26:13.496Z,52.88
2022-11-23T14:28:53.602Z,53.13
2022-11-23T14:31:29.245Z,53.39
2022-11-23T14:34:03.034Z,54.05
2022-11-23T14:36:44.781Z,54.63
2022-11-23T14:39:49.544Z,54.26
2022-11-23T14:42:20.640Z,54.77
2022-11-23T14:44:51.020Z,54.56
2022-11-23T14:47:27.507Z,54.78
2022-11-23T14:49:56.241Z,55.44
2022-11-23T14:52:28.315Z,56.12
2022-11-23T14:54:59.946Z,56.40
2022-11-23T14:57:30.978Z,57.27
2022-11-23T15:00:03.077Z,57.64
2022-11-23T15:02:36.982Z,57.94
2022-11-23T15:05:12.716Z,57.99
2022-11-23T15:07:47.923Z,58.16
2022-11-23T15:10:30.109Z,58.17
2022-11-23T15:12:57.887Z,58.86
2022-11-23T15:15:28.278Z,58.96
2022-11-23T15:17:57.873Z,59.96
2022-11-23T15:20:32.734Z,60.69
2022-11-23T15:23:02.409Z,61.72
2022-11-23T15:25:30.600Z,62.84
2022-11-23T15:27:58.427Z,63.04
2022-11-23T15:30:29.723Z,63.71
2022-11-23T15:32:58.937Z,64.11
2022-11-23T15:35:32.678Z,64.50
2022-11-23T15:38:02.582Z,65.55
2022-11-23T15:40:33.944Z,65.88
2022-11-23T15:43:01.755Z,65.70
2022-11-23T15:45:38.252Z,65.94
2022-11-23T15:48:11.506Z,66.92
2022-11-23T15:50:49.175Z,67.09
2022-11-23T15:53:18.771Z,67.11
2022-11-23T15:55:47.817Z,67.89
2022-11-23T15:58:18.215Z,68.01
2022-11-23T16:00:51.388Z,68.36
2022-11-23T16:03:30.034Z,68.62
2022-11-23T16:06:17.852Z,68.57
2022-11-23T16:08:47.031Z,68.98
2022-11-23T16:11:32.727Z,68.54
2022-11-23T16:14:18.828Z,68.71
2022-11-23T16:16:48.848Z,68.90
2022-11-23T16:19:27.905Z,69.79
2022-11-23T16:22:02.741Z,69.66
2022-11-23T16:24:35.351Z,70.17
2022-11-23T16:27:13.899Z,69.69
2022-11-23T16:29:42.074Z,69.93
2022-11-23T16:32:23.689Z,70.53
2022-11-23T16:34:51.353Z,70.57
2022-11-23T16:37:19.069Z,70.80
2022-11-23T16:39:48.203Z,71.11
2022-11-23T16:42:17.464Z,71.44
2022-11-23T16:44:45.647Z,71.45
2022-11-23T16:47:24.034Z,71.95
2022-11-23T16:49:52.577Z,71.68
2022-11-23T16:52:20.992Z,72.03
2022-11-23T16:54:50.961Z,72.09
2022-11-23T16:57:25.050Z,72.26
2022-11-23T16:59:52.905Z,72.04
2022-11-23T17:02:21.126Z,72.31
2022-11-23T17:04:48.949Z,72.49
2022-11-23T17:07:18.065Z,72.45
2022-11-23T17:09:45.715Z,72.60
2022-11-23T17:12:18.679Z,72.87
2022-11-23T17:14:52.394Z,73.52
2022-11-23T17:17:22.426Z,74.14
2022-11-23T17:19:52.109Z,74.52
2022-11-23T17:22:21.094Z,74.48
2022-11-23T17:24:50.222Z,74.41
2022-11-23T17:27:23.077Z,74.77
2022-11-23T17:29:56.504Z,74.86
2022-11-23T17:32:24.156Z,75.16
2022-11-23T17:34:51.860Z,75.23
2022-11-23T17:37:23.284Z,76.13
2022-11-23T17:39:51.534Z,76.59
2022-11-23T17:42:21.275Z,76.75
2022-11-23T17:44:48.982Z,76.30
2022-11-23T17:47:24.131Z,75.86
2022-11-23T17:49:51.849Z,77.09
2022-11-23T17:52:20.187Z,77.75
2022-11-23T17:54:47.831Z,77.92
2022-11-23T17:57:16.923Z,77.35
2022-11-23T17:59:45.964Z,77.19
2022-11-23T18:02:13.647Z,77.28
2022-11-23T18:04:41.439Z,77.13
2022-11-23T18:07:13.950Z,77.27
2022-11-23T18:09:41.969Z,77.68
2022-11-23T18:12:10.749Z,78.69
2022-11-23T18:14:38.628Z,79.36
2022-11-23T18:17:07.645Z,78.95
2022-11-23T18:19:35.795Z,78.74
2022-11-23T18:22:03.510Z,79.53
2022-11-23T18:24:31.174Z,79.24
2022-11-23T18:26:58.772Z,79.18
2022-11-23T18:29:26.648Z,79.86
2022-11-23T18:31:54.369Z,80.06
2022-11-23T18:34:23.815Z,79.86
2022-11-23T18:36:51.488Z,79.02
2022-11-23T18:39:19.564Z,78.75
2022-11-23T18:41:47.638Z,80.15
2022-11-23T18:44:15.437Z,80.33
2022-11-23T18:46:44.843Z,80.35
2022-11-23T18:49:12.747Z,80.01
2022-11-23T18:51:41.775Z,80.04
2022-11-23T18:54:09.470Z,79.54
2022-11-23T18:56:37.095Z,79.51
2022-11-23T18:59:04.762Z,80.13
2022-11-23T19:01:32.582Z,81.49
2022-11-23T19:04:01.480Z,82.79
2022-11-23T19:06:29.218Z,83.84
2022-11-23T19:08:58.332Z,84.67
2022-11-23T19:11:28.551Z,85.11
2022-11-23T19:13:58.953Z,86.46
2022-11-23T19:16:28.856Z,86.12
2022-11-23T19:18:57.852Z,85.87
2022-11-23T19:21:28.177Z,85.61
2022-11-23T19:23:59.242Z,85.78
2022-11-23T19:26:28.128Z,85.74
2022-11-23T19:28:57.049Z,84.83
2022-11-23T19:31:26.506Z,84.70
2022-11-23T19:33:56.958Z,84.81
2022-11-23T19:36:26.198Z,84.87
2022-11-23T19:38:55.790Z,84.59
2022-11-23T19:41:29.837Z,84.54
2022-11-23T19:43:59.860Z,85.50
2022-11-23T19:46:28.175Z,85.42
2022-11-23T19:48:57.260Z,85.66
2022-11-23T19:51:26.207Z,85.27
2022-11-23T19:53:56.909Z,85.80
2022-11-23T19:56:28.746Z,85.43
2022-11-23T19:58:58.452Z,85.15
2022-11-23T20:01:27.438Z,85.42
2022-11-23T20:03:57.503Z,86.10
2022-11-23T20:06:26.964Z,86.28
2022-11-23T20:08:55.594Z,86.36
2022-11-23T20:11:23.893Z,86.56
2022-11-23T20:13:53.007Z,86.60
2022-11-23T20:16:22.325Z,86.02
2022-11-23T20:18:56.823Z,86.06
2022-11-23T20:21:24.763Z,85.67
2022-11-23T20:24:02.862Z,85.98
2022-11-23T20:26:32.447Z,85.89
2022-11-23T20:29:01.486Z,86.32
2022-11-23T20:31:31.450Z,87.16
2022-11-23T20:33:59.825Z,87.21
2022-11-23T20:36:29.289Z,86.49
2022-11-23T20:38:57.818Z,86.87
2022-11-23T20:41:27.594Z,87.36
2022-11-23T20:43:56.949Z,87.98
2022-11-23T20:46:53.677Z,88.31
2022-11-23T20:49:15.158Z,88.47
2022-11-23T20:51:43.498Z,88.34
2022-11-23T20:54:11.244Z,87.90
2022-11-23T20:56:39.454Z,88.31
2022-11-23T20:59:07.506Z,88.38
2022-11-23T21:01:36.874Z,88.02
2022-11-23T21:04:04.690Z,88.62
2022-11-23T21:06:38.443Z,89.78
2022-11-23T21:09:06.923Z,90.38
2022-11-23T21:11:52.512Z,91.76
2022-11-23T21:14:21.970Z,92.68
2022-11-23T21:16:55.075Z,93.15
2022-11-23T21:19:24.482Z,93.52
2022-11-23T21:21:53.099Z,93.07
2022-11-23T21:24:21.387Z,93.36
2022-11-23T21:26:49.845Z,93.51
2022-11-23T21:29:18.484Z,92.99
2022-11-23T21:31:48.373Z,92.69
2022-11-23T21:34:20.155Z,93.74
2022-11-23T21:36:48.401Z,93.56
2022-11-23T21:39:16.821Z,93.64
2022-11-23T21:41:45.251Z,93.73
2022-11-23T21:44:13.348Z,93.44
2022-11-23T21:46:42.689Z,93.51
2022-11-23T21:49:11.476Z,93.10
2022-11-23T21:51:42.510Z,93.03
2022-11-23T21:54:14.279Z,92.64
2022-11-23T21:56:42.942Z,93.03
2022-11-23T21:59:10.891Z,93.59
2022-11-23T22:01:39.490Z,93.82
2022-11-23T22:04:10.297Z,92.57
2022-11-23T22:06:38.507Z,91.49
2022-11-23T22:09:09.182Z,91.57
2022-11-23T22:11:39.445Z,91.50
2022-11-23T22:14:09.625Z,91.15
2022-11-23T22:16:38.662Z,90.56
2022-11-23T22:19:07.941Z,90.88
2022-11-23T22:21:37.893Z,90.57
2022-11-23T22:24:11.078Z,90.63
2022-11-23T22:26:38.823Z,90.04
2022-11-23T22:29:06.830Z,89.09
2022-11-23T22:31:35.547Z,89.01
2022-11-23T22:34:04.569Z,89.54
2022-11-23T22:36:32.937Z,89.25
2022-11-23T22:39:02.596Z,90.83
2022-11-23T22:41:34.441Z,90.70
2022-11-23T22:44:02.125Z,90.54
2022-11-23T22:46:30.231Z,90.17
2022-11-23T22:48:59.263Z,89.79
2022-11-23T22:51:29.246Z,90.24
2022-11-23T22:53:58.407Z,89.52
2022-11-23T22:56:27.822Z,88.98
2022-11-23T22:58:57.155Z,88.41
2022-11-23T23:01:27.509Z,89.20
2022-11-23T23:03:56.457Z,89.28
2022-11-23T23:06:26.137Z,89.17
2022-11-23T23:08:55.560Z,89.47
2022-11-23T23:11:24.825Z,89.00
2022-11-23T23:13:52.925Z,88.93
2022-11-23T23:16:23.049Z,88.69
2022-11-23T23:18:51.797Z,89.29
2022-11-23T23:21:21.773Z,89.31
2022-11-23T23:23:51.383Z,89.16
2022-11-23T23:26:20.620Z,89.73
2022-11-23T23:28:49.239Z,89.25
2022-11-23T23:31:18.017Z,89.16
2022-11-23T23:33:47.744Z,89.54
2022-11-23T23:36:16.935Z,89.51
2022-11-23T23:38:45.460Z,89.45
2022-11-23T23:41:14.339Z,88.48
2022-11-23T23:43:42.717Z,89.19
2022-11-23T23:46:13.177Z,90.08
2022-11-23T23:48:41.899Z,90.45
2022-11-23T23:51:12.453Z,90.19
2022-11-23T23:53:40.649Z,89.92
2022-11-23T23:56:12.840Z,90.09
2022-11-23T23:58:41.208Z,90.21
